Lindside, West Virginia
Current Conditions -  °F | °C
As of 7:35 AM on Monday 20 Oct 2014 (Local Time) from KPSK Reporting Station
Clear Clear  
Wind Chill: 36°   Ceiling: Unl
Heat Index: 36°   Visibility: 10mi
Dew Point: 36°   Wind: 0mph
Humidity: 100%   Direction: NA
Pressure: 30.11"   Gusts: NA
Location:  37.45°N, 80.67°W
Report Text: KPSK 201135Z AUTO 00000KT 10SM CLR 02/02 A3011 RMK AO2 T00210021
Loading
Personal Weather Stations






























Interactive Weather Map
Tropical Storm Tracking
New forecast layout! Learn more

10-Day Weather Forecast

Advertisements
Track Severe Weather on mobile